DW4821 Weather Reports


Display with metric or nautical units.
time (UTC)temp
F
wind
direction
speed
MPH
gust
MPH
rain 1hr
in
rain 24hr
in
rain mn
in
humidity
%
barometer
mb
20200405104524 18 59 10.0 15.0 0.00 0.00 0.00 92 1013.4
20200405103043 18 50 12.0 19.0 0.00 0.00 0.00 92 1013.4
20200405101521 18 77 8.0 14.0 0.00 0.00 0.00 92 1013.7
20200405100014 17 59 8.0 11.0 0.00 0.00 0.00 92 1013.8
20200405094535 18 55 8.0 10.0 0.00 0.00 0.00 92 1013.8
20200405093027 18 59 6.0 11.0 0.00 0.00 0.00 92 1013.9
20200405091513 18 59 7.0 11.0 0.00 0.00 0.00 92 1014.1
20200405090015 18 73 7.0 11.0 0.00 0.00 0.00 92 1014.3
20200405084630 18 63 5.0 10.0 0.00 0.00 0.00 92 1014.5
20200405083135 18 75 7.0 10.0 0.00 0.00 0.00 92 1014.6
20200405081755 18 54 7.0 10.0 0.00 0.00 0.00 92 1014.7
20200405080111 18 53 6.0 10.0 0.00 0.00 0.00 92 1014.8
20200405074701 18 58 7.0 9.0 0.00 0.00 0.00 92 1015.0
20200405073102 18 48 8.0 10.0 0.00 0.00 0.00 91 1015.0
20200405071642 19 52 7.0 9.0 0.00 0.00 0.00 91 1015.2
20200405070055 19 71 4.0 8.0 0.00 0.00 0.00 91 1015.4
20200405064545 19 54 6.0 8.0 0.00 0.00 0.00 90 1015.5
20200405063043 19 62 3.0 6.0 0.00 0.00 0.00 90 1015.8
20200405061617 19 54 5.0 6.0 0.00 0.00 0.00 89 1015.9
20200405060051 20 77 3.0 7.0 0.00 0.00 0.00 90 1016.1
20200405054619 20 75 6.0 8.0 0.00 0.00 0.00 89 1016.0
20200405053039 20 70 5.0 8.0 0.00 0.00 0.00 89 1016.0
20200405051542 20 57 3.0 6.0 0.00 0.00 0.00 88 1016.2
20200405050040 21 57 3.0 5.0 0.00 0.00 0.00 88 1016.4
20200405044605 21 57 4.0 6.0 0.00 0.00 0.00 87 1016.3
20200405043121 21 67 4.0 7.0 0.00 0.00 0.00 87 1016.4
20200405041529 21 54 4.0 6.0 0.00 0.00 0.00 87 1016.3
20200405040053 21 60 4.0 7.0 0.00 0.00 0.00 86 1016.4
20200405034555 21 61 4.0 7.0 0.00 0.00 0.00 86 1016.4
20200405033029 20 52 4.0 7.0 0.00 0.00 0.00 85 1016.5
20200405031559 21 59 4.0 7.0 0.00 0.00 0.00 84 1016.5
20200405030026 21 63 4.0 7.0 0.00 0.00 0.00 83 1016.2
20200405024608 22 63 4.0 7.0 0.00 0.00 0.00 82 1016.2
20200405023051 22 40 6.0 9.0 0.00 0.00 0.00 80 1015.8
20200405021544 24 46 6.0 9.0 0.00 0.00 0.00 78 1015.9
20200405020025 25 55 6.0 9.0 0.00 0.00 0.00 76 1015.6
20200405014524 26 62 5.0 10.0 0.00 0.00 0.00 73 1015.6
20200405013039 27 65 6.0 10.0 0.00 0.00 0.00 72 1015.5
20200405011621 28 86 8.0 11.0 0.00 0.00 0.00 70 1015.7
20200405010138 29 79 8.0 12.0 0.00 0.00 0.00 68 1015.7
20200405004552 29 80 7.0 13.0 0.00 0.00 0.00 67 1015.5
20200405003110 30 77 9.0 13.0 0.00 0.00 0.00 65 1015.4
20200405001522 30 50 8.0 14.0 0.00 0.00 0.00 65 1015.3
20200405000020 31 76 9.0 15.0 0.00 0.00 0.00 64 1015.2
20200404234519 31 71 8.0 12.0 0.00 0.00 0.00 64 1015.3
20200404233033 31 50 9.0 13.0 0.00 0.00 0.00 64 1015.2
20200404231515 30 90 9.0 14.0 0.00 0.00 0.00 64 1015.4
20200404230016 31 77 11.0 15.0 0.00 0.00 0.00 64 1015.3
20200404224535 31 82 7.0 13.0 0.00 0.00 0.00 62 1015.4
20200404223014 31 59 9.0 18.0 0.00 0.00 0.00 64 1015.5
20200404221509 31 54 6.0 10.0 0.00 0.00 0.00 66 1015.5
20200404220042 30 25 6.0 13.0 0.00 0.00 0.00 67 1015.6
20200404214538 30 102 8.0 16.0 0.00 0.00 0.00 66 1015.6
20200404213011 30 55 7.0 12.0 0.00 0.00 0.00 66 1015.7
20200404211505 30 76 6.0 12.0 0.00 0.00 0.00 67 1015.7
20200404210013 30 87 4.0 12.0 0.00 0.00 0.00 68 1015.7
20200404204505 29 125 5.0 12.0 0.00 0.00 0.00 68 1016.0
20200404203144 29 102 8.0 12.0 0.00 0.00 0.00 70 1016.1
20200404201706 28 112 7.0 11.0 0.00 0.00 0.00 71 1016.2
20200404200147 28 133 7.0 13.0 0.00 0.00 0.00 71 1016.2
20200404194605 28 130 6.0 12.0 0.00 0.00 0.00 71 1016.3
20200404193117 27 82 5.0 12.0 0.00 0.00 0.00 72 1016.3
20200404191608 27 111 6.0 13.0 0.00 0.00 0.00 73 1016.5
20200404190127 27 98 4.0 9.0 0.00 0.00 0.00 72 1016.4
20200404184630 27 144 4.0 10.0 0.00 0.00 0.00 72 1016.4
20200404183125 27 302 2.0 4.0 0.00 0.00 0.00 72 1016.5
20200404181613 26 281 4.0 10.0 0.00 0.00 0.00 73 1016.5
20200404180100 26 244 7.0 12.0 0.00 0.00 0.00 74 1016.6
20200404174605 25 244 6.0 13.0 0.00 0.00 0.00 75 1016.7
20200404173104 26 223 9.0 17.0 0.00 0.00 0.00 76 1016.8
20200404171617 25 148 9.0 14.0 0.00 0.00 0.00 78 1016.8
20200404170041 25 173 6.0 11.0 0.00 0.00 0.00 81 1016.6
20200404164539 24 206 6.0 11.0 0.00 0.00 0.00 82 1016.6
20200404163121 24 163 5.0 11.0 0.00 0.00 0.00 84 1016.5
20200404161608 24 52 5.0 9.0 0.00 0.00 0.00 84 1016.2
20200404160034 24 68 5.0 12.0 0.00 0.00 0.00 84 1016.1
20200404154532 24 117 6.0 10.0 0.00 0.00 0.00 84 1016.1
20200404153036 23 138 1.0 8.0 0.00 0.00 0.00 85 1016.0
20200404151547 23 42 7.0 12.0 0.00 0.00 0.00 88 1015.8
20200404150108 22 38 10.0 16.0 0.00 0.00 0.00 89 1015.8
20200404144601 22 51 8.0 16.0 0.00 0.00 0.00 90 1015.7
20200404143110 22 67 8.0 19.0 0.00 0.00 0.00 89 1015.7
20200404141538 22 48 10.0 17.0 0.00 0.00 0.00 89 1015.5
20200404140037 22 85 10.0 16.0 0.00 0.00 0.00 88 1015.6
20200404134540 21 29 6.0 10.0 0.00 0.00 0.00 89 1015.4
20200404133041 21 14 7.0 11.0 0.00 0.00 0.00 89 1015.4
20200404131533 22 69 4.0 10.0 0.00 0.00 0.00 90 1015.2
20200404130025 21 92 2.0 7.0 0.00 0.00 0.00 92 1015.2
20200404124554 20 236 2.0 5.0 0.00 0.00 0.00 91 1015.0
20200404123028 19 258 4.0 9.0 0.00 0.00 0.00 89 1014.8
20200404121528 20 22 2.0 4.0 0.00 0.00 0.00 89 1014.7
20200404120051 21 36 5.0 11.0 0.00 0.00 0.00 89 1014.6
20200404114539 21 41 7.0 10.0 0.00 0.00 0.00 90 1014.5
20200404113012 21 33 7.0 12.0 0.00 0.00 0.00 90 1014.4
20200404111600 22 34 7.0 11.0 0.00 0.00 0.00 90 1014.4
20200404110029 22 25 6.0 9.0 0.00 0.00 0.00 91 1014.3